createdAt,value
2022-08-22T00:02:29.535Z,35.63
2022-08-22T00:02:46.133Z,31.26
2022-08-22T00:07:54.716Z,35.33
2022-08-22T00:13:05.816Z,35.53
2022-08-22T00:18:14.921Z,35.42
2022-08-22T00:23:23.841Z,35.30
2022-08-22T00:28:32.781Z,35.30
2022-08-22T00:33:44.018Z,35.56
2022-08-22T00:38:55.519Z,35.43
2022-08-22T00:44:44.336Z,35.88
2022-08-22T00:50:21.984Z,35.67
2022-08-22T00:55:39.451Z,35.34
2022-08-22T01:00:45.625Z,35.58
2022-08-22T01:06:04.615Z,35.60
2022-08-22T01:11:27.005Z,35.63
2022-08-22T01:17:00.740Z,35.65
2022-08-22T01:22:45.137Z,35.38
2022-08-22T01:28:32.964Z,35.98
2022-08-22T01:34:12.932Z,36.18
2022-08-22T01:39:48.535Z,36.79
2022-08-22T01:45:05.938Z,37.97
2022-08-22T01:50:20.417Z,39.23
2022-08-22T01:55:33.091Z,40.41
2022-08-22T02:00:58.915Z,39.38
2022-08-22T02:06:07.437Z,39.82
2022-08-22T02:11:32.661Z,40.00
2022-08-22T02:16:40.063Z,40.72
2022-08-22T02:21:50.209Z,40.65
2022-08-22T02:27:08.294Z,40.71
2022-08-22T02:32:20.845Z,40.77
2022-08-22T02:37:35.305Z,41.12
2022-08-22T02:42:46.930Z,40.40
2022-08-22T02:47:58.432Z,40.02
2022-08-22T02:53:13.033Z,39.33
2022-08-22T02:58:21.994Z,38.86
2022-08-22T03:03:28.868Z,38.82
2022-08-22T03:08:38.841Z,39.12
2022-08-22T03:14:02.770Z,39.15
2022-08-22T03:19:18.857Z,42.22
2022-08-22T03:24:31.293Z,41.14
2022-08-22T03:29:39.771Z,40.34
2022-08-22T03:34:57.780Z,40.39
2022-08-22T03:40:04.606Z,40.21
2022-08-22T03:45:40.801Z,40.20
2022-08-22T03:51:10.037Z,40.50
2022-08-22T03:56:40.974Z,39.95
2022-08-22T04:02:35.205Z,39.19
2022-08-22T04:08:17.359Z,39.08
2022-08-22T04:13:50.775Z,38.60
2022-08-22T04:19:08.861Z,38.65
2022-08-22T04:24:40.051Z,38.51
2022-08-22T04:29:49.798Z,38.26
2022-08-22T04:34:58.803Z,37.52
2022-08-22T04:40:08.727Z,37.44
2022-08-22T04:45:17.622Z,37.82
2022-08-22T04:50:27.281Z,38.13
2022-08-22T04:55:36.672Z,37.80
2022-08-22T05:00:58.374Z,37.64
2022-08-22T05:06:06.251Z,37.86
2022-08-22T05:11:12.527Z,38.23
2022-08-22T05:16:22.472Z,37.97
2022-08-22T05:21:34.013Z,38.30
2022-08-22T05:26:40.022Z,38.31
2022-08-22T05:31:49.578Z,38.19
2022-08-22T05:36:59.082Z,38.21
2022-08-22T05:42:04.751Z,38.33
2022-08-22T05:47:27.055Z,38.55
2022-08-22T05:52:52.128Z,39.45
2022-08-22T05:58:11.694Z,39.54
2022-08-22T06:03:20.819Z,39.71
2022-08-22T06:08:31.000Z,39.41
2022-08-22T06:13:41.189Z,39.02
2022-08-22T06:18:46.158Z,38.87
2022-08-22T06:23:54.394Z,38.52
2022-08-22T06:29:02.400Z,38.65
2022-08-22T06:34:11.432Z,38.18
2022-08-22T06:39:22.967Z,37.66
2022-08-22T06:44:32.012Z,35.82
2022-08-22T06:49:37.348Z,34.79
2022-08-22T06:54:47.684Z,34.22
2022-08-22T06:59:53.203Z,34.67
2022-08-22T07:04:57.292Z,34.47
2022-08-22T07:10:02.756Z,33.59
2022-08-22T07:15:14.337Z,31.20
2022-08-22T07:20:28.140Z,31.62
2022-08-22T07:25:37.040Z,32.54
2022-08-22T07:30:51.667Z,30.78
2022-08-22T07:36:01.727Z,26.32
2022-08-22T07:41:15.391Z,23.07
2022-08-22T07:46:29.928Z,20.67
2022-08-22T07:51:37.429Z,20.04
2022-08-22T07:56:46.788Z,19.10
2022-08-22T08:01:54.341Z,17.72
2022-08-22T08:07:00.814Z,17.65
2022-08-22T08:12:07.191Z,18.34
2022-08-22T08:17:18.574Z,19.24
2022-08-22T08:22:26.141Z,20.46
2022-08-22T08:27:53.830Z,20.06
2022-08-22T08:33:25.692Z,19.91
2022-08-22T08:38:31.450Z,20.79
2022-08-22T08:43:45.162Z,20.79
2022-08-22T08:49:13.518Z,20.48
2022-08-22T08:54:33.375Z,21.53
2022-08-22T08:59:47.518Z,20.51
2022-08-22T09:05:27.415Z,21.37
2022-08-22T09:10:57.424Z,21.43
2022-08-22T09:16:19.452Z,21.07
2022-08-22T09:21:53.763Z,21.75
2022-08-22T09:27:02.177Z,21.33
2022-08-22T09:32:16.695Z,21.29
2022-08-22T09:37:30.910Z,21.00
2022-08-22T09:42:44.970Z,21.32
2022-08-22T09:48:07.092Z,21.74
2022-08-22T09:53:15.458Z,22.10
2022-08-22T09:58:27.946Z,22.07
2022-08-22T10:04:12.774Z,22.14
2022-08-22T10:09:31.226Z,22.43
2022-08-22T10:15:04.419Z,22.38
2022-08-22T10:20:21.788Z,23.69
2022-08-22T10:25:41.819Z,23.77
2022-08-22T10:30:55.050Z,23.72
2022-08-22T10:36:05.468Z,24.16
2022-08-22T10:41:18.971Z,24.07
2022-08-22T10:46:35.727Z,24.47
2022-08-22T10:51:47.722Z,24.15
2022-08-22T10:57:00.852Z,24.40
2022-08-22T11:02:20.285Z,24.53
2022-08-22T11:07:50.177Z,24.87
2022-08-22T11:13:08.825Z,24.86
2022-08-22T11:18:21.051Z,24.91
2022-08-22T11:23:38.659Z,24.52
2022-08-22T11:29:14.161Z,24.69
2022-08-22T11:34:43.998Z,24.72
2022-08-22T11:40:13.802Z,24.53
2022-08-22T11:45:21.855Z,23.72
2022-08-22T11:50:35.194Z,24.38
2022-08-22T11:55:45.629Z,23.32
2022-08-22T12:00:55.635Z,23.12
2022-08-22T12:06:04.974Z,23.31
2022-08-22T12:11:19.540Z,23.13
2022-08-22T12:16:28.946Z,23.91
2022-08-22T12:21:51.682Z,24.12
2022-08-22T12:27:28.466Z,23.76
2022-08-22T12:33:07.416Z,23.73
2022-08-22T12:38:37.417Z,23.95
2022-08-22T12:43:58.490Z,23.66
2022-08-22T12:49:18.617Z,23.74
2022-08-22T12:54:46.714Z,23.47
2022-08-22T12:59:58.114Z,23.45
2022-08-22T13:05:09.784Z,22.59
2022-08-22T13:10:36.796Z,22.66
2022-08-22T13:15:47.074Z,23.06
2022-08-22T13:20:59.758Z,23.39
2022-08-22T13:26:10.235Z,23.62
2022-08-22T13:31:28.024Z,23.01
2022-08-22T13:36:35.020Z,23.82
2022-08-22T13:41:48.678Z,23.91
2022-08-22T13:47:13.793Z,24.21
2022-08-22T13:52:30.214Z,24.70
2022-08-22T13:57:39.067Z,24.38
2022-08-22T14:02:57.457Z,25.13
2022-08-22T14:08:14.379Z,25.09
2022-08-22T14:13:43.995Z,25.27
2022-08-22T14:18:54.990Z,25.93
2022-08-22T14:24:03.866Z,25.70
2022-08-22T14:29:16.300Z,26.12
2022-08-22T14:34:22.514Z,26.07
2022-08-22T14:39:34.896Z,25.95
2022-08-22T14:44:45.886Z,26.50
2022-08-22T14:49:54.654Z,27.00
2022-08-22T14:55:18.139Z,26.78
2022-08-22T15:00:33.030Z,26.79
2022-08-22T15:05:52.297Z,27.31
2022-08-22T15:11:12.714Z,27.33
2022-08-22T15:16:21.060Z,27.59
2022-08-22T15:21:30.074Z,27.24
2022-08-22T15:26:37.658Z,27.06
2022-08-22T15:31:44.922Z,27.72
2022-08-22T15:37:10.031Z,27.72
2022-08-22T15:42:27.320Z,27.88
2022-08-22T15:47:39.910Z,28.16
2022-08-22T15:53:10.456Z,28.17
2022-08-22T15:58:23.534Z,29.32
2022-08-22T16:03:29.987Z,28.55
2022-08-22T16:08:55.660Z,28.83
2022-08-22T16:14:21.694Z,29.27
2022-08-22T16:19:28.317Z,29.70
2022-08-22T16:24:56.060Z,29.83
2022-08-22T16:30:17.720Z,30.03
2022-08-22T16:35:58.629Z,30.76
2022-08-22T16:41:05.274Z,31.42
2022-08-22T16:46:33.225Z,31.46
2022-08-22T16:52:26.381Z,33.43
2022-08-22T16:57:50.589Z,32.58
2022-08-22T17:03:11.905Z,32.73
2022-08-22T17:08:37.973Z,32.71
2022-08-22T17:13:59.980Z,32.22
2022-08-22T17:19:18.515Z,31.92
2022-08-22T17:24:37.140Z,31.74
2022-08-22T17:30:00.179Z,31.44
2022-08-22T17:35:16.195Z,31.86
2022-08-22T17:40:38.239Z,31.81
2022-08-22T17:46:05.556Z,31.48
2022-08-22T17:51:19.905Z,32.05
2022-08-22T17:56:29.564Z,32.70
2022-08-22T18:01:44.987Z,32.40
2022-08-22T18:06:56.155Z,32.87
2022-08-22T18:12:06.266Z,32.31
2022-08-22T18:17:26.621Z,32.80
2022-08-22T18:22:34.602Z,32.89
2022-08-22T18:27:48.153Z,32.68
2022-08-22T18:33:00.267Z,33.14
2022-08-22T18:38:19.589Z,32.81
2022-08-22T18:43:38.048Z,32.87
2022-08-22T18:49:05.397Z,34.54
2022-08-22T18:54:41.568Z,34.06
2022-08-22T19:00:02.911Z,36.55
2022-08-22T19:05:32.836Z,36.21
2022-08-22T19:10:47.458Z,37.48
2022-08-22T19:16:07.561Z,37.09
2022-08-22T19:21:39.592Z,35.02
2022-08-22T19:26:47.794Z,37.52
2022-08-22T19:31:52.779Z,37.70
2022-08-22T19:37:30.720Z,36.25
2022-08-22T19:42:43.193Z,36.75
2022-08-22T19:47:56.686Z,36.64
2022-08-22T19:53:34.174Z,36.47
2022-08-22T19:58:52.460Z,36.55
2022-08-22T20:04:00.402Z,37.08
2022-08-22T20:09:18.189Z,39.52
2022-08-22T20:14:30.933Z,38.12
2022-08-22T20:25:42.134Z,41.82
2022-08-22T20:30:50.239Z,43.29
2022-08-22T20:35:56.254Z,44.01
2022-08-22T20:41:12.733Z,44.41
2022-08-22T20:46:46.026Z,43.95
2022-08-22T20:51:55.595Z,44.61
2022-08-22T20:57:03.209Z,44.49
2022-08-22T21:02:14.765Z,42.91
2022-08-22T21:07:26.938Z,43.82
2022-08-22T21:12:33.255Z,42.38
2022-08-22T21:17:39.581Z,41.55
2022-08-22T21:22:43.403Z,40.98
2022-08-22T21:27:49.459Z,41.00
2022-08-22T21:32:56.405Z,41.29
2022-08-22T21:38:01.315Z,40.72
2022-08-22T21:43:09.640Z,40.11
2022-08-22T21:48:39.418Z,40.00
2022-08-22T21:53:42.796Z,39.88
2022-08-22T21:58:48.016Z,39.33
2022-08-22T22:03:51.432Z,39.77
2022-08-22T22:08:55.348Z,39.85
2022-08-22T22:14:00.261Z,40.88
2022-08-22T22:19:03.668Z,43.40
2022-08-22T22:24:07.505Z,43.07
2022-08-22T22:29:12.390Z,41.49
2022-08-22T22:34:16.039Z,44.46
2022-08-22T22:39:19.753Z,42.68
2022-08-22T22:44:25.658Z,42.51
2022-08-22T22:49:29.531Z,41.52
2022-08-22T22:54:32.999Z,41.54
2022-08-22T22:59:38.947Z,41.51
2022-08-22T23:04:46.194Z,40.87
2022-08-22T23:09:49.742Z,40.76
2022-08-22T23:14:54.813Z,40.81
2022-08-22T23:19:58.350Z,40.64
2022-08-22T23:25:01.913Z,41.02
2022-08-22T23:30:08.732Z,41.28
2022-08-22T23:35:12.187Z,41.08
2022-08-22T23:40:15.744Z,41.17
2022-08-22T23:45:21.856Z,42.84
2022-08-22T23:50:25.216Z,41.92
2022-08-22T23:55:28.635Z,41.69
